Observation data for Silverton on 03/11/2018      Previous  Date  Next       Current Mesonet Observations  Soil Data  Daily Summary Page  Observations in Plain Language
KSVS 110600Z 01024G32KT 13/M06 A30 RMK A01 T01281056  RH  027%=      5-min Rain = 0
KSVS 110605Z 02024G30KT 13/M06 A30 RMK A01 T01271057  RH  027%=      5-min Rain = 0
KSVS 110610Z 02024G34KT 13/M06 A30 RMK A01 T01261057  RH  028%=      5-min Rain = 0
KSVS 110615Z 02022G29KT 12/M06 A3001 RMK A01 T01241057  RH  028%=      5-min Rain = 0
KSVS 110620Z 01024G34KT 12/M06 A3001 RMK A01 T01231057  RH  028%=      5-min Rain = 0
KSVS 110625Z 01023G30KT 12/M06 A3001 RMK A01 T01231057  RH  028%=      5-min Rain = 0
KSVS 110630Z 02023G31KT 12/M06 A3001 RMK A01 T01221056  RH  028%=      5-min Rain = 0
KSVS 110635Z 02021G29KT 12/M06 A3001 RMK A01 T01211055  RH  029%=      5-min Rain = 0
KSVS 110640Z 02022G31KT 12/M05 A3002 RMK A01 T01191052  RH  030%=      5-min Rain = 0
KSVS 110645Z 02022G28KT 12/M05 A3002 RMK A01 T01191050  RH  030%=      5-min Rain = 0
KSVS 110650Z 02024G32KT 12/M05 A3002 RMK A01 T01191048  RH  031%=      5-min Rain = 0
KSVS 110655Z 02022G31KT 12/M05 A3003 RMK A01 T01181047  RH  031%=      5-min Rain = 0
KSVS 110700Z 02021G31KT 12/M05 A3003 RMK A01 T01161045  RH  032%=      5-min Rain = 0
KSVS 110705Z 02024G31KT 12/M04 A3003 RMK A01 T01161043  RH  033%=      5-min Rain = 0
KSVS 110710Z 02022G31KT 12/M04 A3004 RMK A01 T01151041  RH  033%=      5-min Rain = 0
KSVS 110715Z 02023G31KT 11/M04 A3004 RMK A01 T01141039  RH  034%=      5-min Rain = 0
KSVS 110720Z 02022G34KT 11/M04 A3005 RMK A01 T01131038  RH  035%=      5-min Rain = 0
KSVS 110725Z 02022G34KT 11/M04 A3005 RMK A01 T01121038  RH  035%=      5-min Rain = 0
KSVS 110730Z 01025G34KT 11/M04 A3005 RMK A01 T01121038  RH  035%=      5-min Rain = 0
KSVS 110735Z 02021G31KT 11/M04 A3005 RMK A01 T01101037  RH  036%=      5-min Rain = 0
KSVS 110740Z 02025G32KT 11/M04 A3005 RMK A01 T01091037  RH  036%=      5-min Rain = 0
KSVS 110745Z 02026G32KT 11/M04 A3005 RMK A01 T01091036  RH  036%=      5-min Rain = 0
KSVS 110750Z 02023G31KT 11/M04 A3006 RMK A01 T01081036  RH  036%=      5-min Rain = 0
KSVS 110755Z 02022G30KT 11/M04 A3006 RMK A01 T01061037  RH  037%=      5-min Rain = 0
KSVS 110800Z 02018G25KT 11/M04 A3006 RMK A01 T01051037  RH  037%=      5-min Rain = 0
KSVS 110805Z 02020G25KT 11/M04 A3006 RMK A01 T01051038  RH  037%=      5-min Rain = 0
KSVS 110810Z 02018G23KT 10/M04 A3006 RMK A01 T01041038  RH  037%=      5-min Rain = 0
KSVS 110815Z 02020G26KT 10/M04 A3006 RMK A01 T01041039  RH  037%=      5-min Rain = 0
KSVS 110820Z 02018G25KT 10/M04 A3006 RMK A01 T01041039  RH  037%=      5-min Rain = 0
KSVS 110825Z 02020KT 10/M04 A3007 RMK A01 T01041040  RH  036%=      5-min Rain = 0
KSVS 110830Z 01020G27KT 10/M04 A3007 RMK A01 T01031040  RH  036%=      5-min Rain = 0
KSVS 110835Z 02020G26KT 10/M04 A3007 RMK A01 T01031043  RH  036%=      5-min Rain = 0
KSVS 110840Z 01019G25KT 10/M04 A3007 RMK A01 T01031044  RH  035%=      5-min Rain = 0
KSVS 110845Z 01019G24KT 10/M05 A3007 RMK A01 T01021045  RH  035%=      5-min Rain = 0
KSVS 110850Z 01018G23KT 10/M05 A3007 RMK A01 T01021047  RH  035%=      5-min Rain = 0
KSVS 110855Z 01017G22KT 10/M05 A3008 RMK A01 T01011048  RH  035%=      5-min Rain = 0
KSVS 110900Z 01018KT 10/M05 A3008 RMK A01 T01021050  RH  034%=      5-min Rain = 0
KSVS 110905Z 01015G22KT 10/M05 A3008 RMK A01 T01001051  RH  034%=      5-min Rain = 0
KSVS 110910Z 01017G23KT 10/M05 A3008 RMK A01 T01011052  RH  034%=      5-min Rain = 0
KSVS 110915Z 01017KT 10/M05 A3008 RMK A01 T01001052  RH  034%=      5-min Rain = 0
KSVS 110920Z 01018G25KT 10/M05 A3009 RMK A01 T00991052  RH  034%=      5-min Rain = 0
KSVS 110925Z 01017G23KT 10/M05 A3008 RMK A01 T00991052  RH  034%=      5-min Rain = 0
KSVS 110930Z 01018G23KT 10/M05 A3008 RMK A01 T00981051  RH  035%=      5-min Rain = 0
KSVS 110935Z 01019G25KT 10/M05 A3009 RMK A01 T00981051  RH  035%=      5-min Rain = 0
KSVS 110940Z 01019G28KT 10/M05 A3009 RMK A01 T00971049  RH  035%=      5-min Rain = 0
KSVS 110945Z 01020G27KT 10/M05 A3009 RMK A01 T00961048  RH  036%=      5-min Rain = 0
KSVS 110950Z 01021KT 10/M05 A3009 RMK A01 T00961046  RH  037%=      5-min Rain = 0
KSVS 110955Z 01019G26KT 10/M05 A3009 RMK A01 T00951045  RH  037%=      5-min Rain = 0
KSVS 111000Z 01021G28KT 09/M04 A301 RMK A01 T00941042  RH  038%=      5-min Rain = 0
KSVS 111005Z 01018G26KT 09/M04 A301 RMK A01 T00931042  RH  038%=      5-min Rain = 0
KSVS 111010Z 01020G28KT 09/M04 A301 RMK A01 T00921041  RH  039%=      5-min Rain = 0
KSVS 111015Z 01018G27KT 09/M04 A301 RMK A01 T00911042  RH  039%=      5-min Rain = 0
KSVS 111020Z 01018KT 09/M04 A3011 RMK A01 T00891042  RH  039%=      5-min Rain = 0
KSVS 111025Z 01018G24KT 09/M04 A3011 RMK A01 T00881043  RH  039%=      5-min Rain = 0
KSVS 111030Z 01018G23KT 09/M04 A3011 RMK A01 T00881044  RH  039%=      5-min Rain = 0
KSVS 111035Z 01018G25KT 09/M05 A3012 RMK A01 T00871045  RH  039%=      5-min Rain = 0
KSVS 111040Z 01018G25KT 09/M05 A3012 RMK A01 T00861046  RH  039%=      5-min Rain = 0
KSVS 111045Z 01017G22KT 09/M05 A3013 RMK A01 T00851046  RH  039%=      5-min Rain = 0
KSVS 111050Z 00019G26KT 08/M05 A3013 RMK A01 T00841046  RH  040%=      5-min Rain = 0
KSVS 111055Z 01019G24KT 08/M05 A3013 RMK A01 T00821046  RH  040%=      5-min Rain = 0
KSVS 111100Z 01019G26KT 08/M05 A3014 RMK A01 T00801045  RH  041%=      5-min Rain = 0
KSVS 111105Z 01017G22KT 08/M05 A3014 RMK A01 T00801045  RH  041%=      5-min Rain = 0
KSVS 111110Z 00018G25KT 08/M05 A3014 RMK A01 T00771046  RH  041%=      5-min Rain = 0
KSVS 111115Z 00019G29KT 08/M05 A3014 RMK A01 T00761047  RH  042%=      5-min Rain = 0
KSVS 111120Z 01019G25KT 07/M05 A3015 RMK A01 T00731049  RH  042%=      5-min Rain = 0
KSVS 111125Z 01017G24KT 07/M05 A3015 RMK A01 T00711050  RH  042%=      5-min Rain = 0
KSVS 111130Z 01016G21KT 07/M05 A3015 RMK A01 T00691051  RH  042%=      5-min Rain = 0
KSVS 111135Z 00017G22KT 07/M05 A3015 RMK A01 T00671054  RH  042%=      5-min Rain = 0
KSVS 111140Z 36017G23KT 06/M06 A3016 RMK A01 T00641057  RH  042%=      5-min Rain = 0
KSVS 111145Z 36020G28KT 06/M06 A3016 RMK A01 T00631062  RH  041%=      5-min Rain = 0
KSVS 111150Z 00021KT 06/M06 A3016 RMK A01 T00621064  RH  040%=      5-min Rain = 0
KSVS 111155Z 00020G28KT 06/M07 A3016 RMK A01 T00611065  RH  040%=      5-min Rain = 0
KSVS 111200Z 01021G28KT 06/M07 A3016 RMK A01 T00601066  RH  040%=      5-min Rain = 0
KSVS 111205Z 01018G24KT 06/M07 A3016 RMK A01 T00591066  RH  040%=      5-min Rain = 0
KSVS 111210Z 00019G25KT 06/M07 A3017 RMK A01 T00581066  RH  040%=      5-min Rain = 0
KSVS 111215Z 00020G27KT 06/M07 A3017 RMK A01 T00581066  RH  040%=      5-min Rain = 0
KSVS 111220Z 00020G27KT 06/M07 A3017 RMK A01 T00581066  RH  040%=      5-min Rain = 0
KSVS 111225Z 00017G23KT 06/M07 A3017 RMK A01 T00571066  RH  041%=      5-min Rain = 0
KSVS 111230Z 00018G23KT 06/M07 A3017 RMK A01 T00571066  RH  041%=      5-min Rain = 0
KSVS 111235Z 00017G22KT 06/M07 A3017 RMK A01 T00561067  RH  041%=      5-min Rain = 0
KSVS 111240Z 36017G23KT 06/M07 A3018 RMK A01 T00551067  RH  041%=      5-min Rain = 0
KSVS 111245Z 36017G23KT 05/M07 A3018 RMK A01 T00531067  RH  042%=      5-min Rain = 0
KSVS 111250Z 36018G26KT 05/M07 A3018 RMK A01 T00511067  RH  042%=      5-min Rain = 0
KSVS 111255Z 36017G26KT 05/M07 A3019 RMK A01 T00501066  RH  043%=      5-min Rain = 0
KSVS 111300Z 36018G24KT 05/M06 A302 RMK A01 T00501064  RH  043%=      5-min Rain = 0
KSVS 111305Z 36018G23KT 05/M06 A302 RMK A01 T00501063  RH  044%=      5-min Rain = 0
KSVS 111310Z 36019G25KT 05/M06 A302 RMK A01 T00501062  RH  044%=      5-min Rain = 0
KSVS 111315Z 00016G21KT 05/M06 A302 RMK A01 T00481061  RH  045%=      5-min Rain = 0
KSVS 111320Z 00015G20KT 05/M06 A302 RMK A01 T00471061  RH  046%=      5-min Rain = 0
KSVS 111325Z 36016G22KT 05/M06 A302 RMK A01 T00461060  RH  046%=      5-min Rain = 0
KSVS 111330Z 36015G22KT 05/M06 A302 RMK A01 T00451059  RH  047%=      5-min Rain = 0
KSVS 111335Z 36017G22KT 05/M06 A3021 RMK A01 T00461056  RH  047%=      5-min Rain = 0
KSVS 111340Z 36018G25KT 05/M06 A3021 RMK A01 T00471055  RH  048%=      5-min Rain = 0
KSVS 111345Z 36018KT 05/M06 A3021 RMK A01 T00451055  RH  048%=      5-min Rain = 0
KSVS 111350Z 36018G24KT 05/M05 A3021 RMK A01 T00451053  RH  049%=      5-min Rain = 0
KSVS 111355Z 36020G26KT 04/M05 A3021 RMK A01 T00441050  RH  051%=      5-min Rain = 0
KSVS 111400Z 36017G22KT 04/M05 A3022 RMK A01 T00441049  RH  051%=      5-min Rain = 0
KSVS 111405Z 36017G25KT 04/M05 A3022 RMK A01 T00441049  RH  051%=      5-min Rain = 0
KSVS 111410Z 35020G27KT 04/M05 A3022 RMK A01 T00441048  RH  051%=      5-min Rain = 0
KSVS 111415Z 36023G29KT 04/M05 A3023 RMK A01 T00421046  RH  053%=      5-min Rain = 0
KSVS 111420Z 00019G27KT 04/M05 A3023 RMK A01 T00441047  RH  052%=      5-min Rain = 0
KSVS 111425Z 36018G25KT 05/M05 A3023 RMK A01 T00451048  RH  051%=      5-min Rain = 0
KSVS 111430Z 36017G25KT 05/M05 A3023 RMK A01 T00471048  RH  050%=      5-min Rain = 0
KSVS 111435Z 36021G27KT 04/M05 A3023 RMK A01 T00441052  RH  050%=      5-min Rain = 0
KSVS 111440Z 36019G25KT 04/M06 A3024 RMK A01 T00431055  RH  049%=      5-min Rain = 0
KSVS 111445Z 36017G22KT 04/M06 A3024 RMK A01 T00431055  RH  049%=      5-min Rain = 0
KSVS 111450Z 36021G26KT 04/M06 A3024 RMK A01 T00431057  RH  048%=      5-min Rain = 0
KSVS 111455Z 36020G27KT 05/M06 A3025 RMK A01 T00451057  RH  048%=      5-min Rain = 0
KSVS 111500Z 36018G24KT 05/M06 A3025 RMK A01 T00501056  RH  046%=      5-min Rain = 0
KSVS 111505Z 36020G26KT 05/M06 A3025 RMK A01 T00491059  RH  046%=      5-min Rain = 0
KSVS 111510Z 00019G26KT 05/M06 A3025 RMK A01 T00491060  RH  045%=      5-min Rain = 0
KSVS 111515Z 36019G24KT 05/M06 A3025 RMK A01 T00521061  RH  044%=      5-min Rain = 0
KSVS 111520Z 35021G26KT 06/M06 A3025 RMK A01 T00571064  RH  041%=      5-min Rain = 0
KSVS 111525Z 00021G26KT 06/M07 A3025 RMK A01 T00551068  RH  041%=      5-min Rain = 0
KSVS 111530Z 36020G26KT 06/M07 A3025 RMK A01 T00551070  RH  040%=      5-min Rain = 0
KSVS 111535Z 36019KT 06/M07 A3025 RMK A01 T00561071  RH  039%=      5-min Rain = 0
KSVS 111540Z 36020G27KT 05/M07 A3026 RMK A01 T00531073  RH  040%=      5-min Rain = 0
KSVS 111545Z 36018G25KT 05/M07 A3026 RMK A01 T00541072  RH  040%=      5-min Rain = 0
KSVS 111550Z 01017G23KT 06/M07 A3026 RMK A01 T00601072  RH  038%=      5-min Rain = 0
KSVS 111555Z 00018G23KT 07/M07 A3026 RMK A01 T00651071  RH  037%=      5-min Rain = 0
KSVS 111600Z 00019G26KT 07/M07 A3027 RMK A01 T00681071  RH  036%=      5-min Rain = 0
KSVS 111605Z 36019G27KT 07/M07 A3027 RMK A01 T00671073  RH  036%=      5-min Rain = 0
KSVS 111610Z 36018G26KT 07/M07 A3028 RMK A01 T00731072  RH  035%=      5-min Rain = 0
KSVS 111615Z 35018G25KT 08/M07 A3028 RMK A01 T00761071  RH  034%=      5-min Rain = 0
KSVS 111620Z 36017G24KT 08/M07 A3028 RMK A01 T00781072  RH  034%=      5-min Rain = 0
KSVS 111625Z 36021G27KT 08/M08 A3028 RMK A01 T00791083  RH  031%=      5-min Rain = 0
KSVS 111630Z 36020G25KT 08/M09 A3029 RMK A01 T00751085  RH  031%=      5-min Rain = 0
KSVS 111635Z 35017G25KT 08/M08 A3029 RMK A01 T00751081  RH  032%=      5-min Rain = 0
KSVS 111640Z 35018G24KT 08/M08 A3029 RMK A01 T00811079  RH  031%=      5-min Rain = 0
KSVS 111645Z 35017G24KT 09/M08 A3029 RMK A01 T00871078  RH  030%=      5-min Rain = 0
KSVS 111650Z 35018G23KT 08/M08 A3029 RMK A01 T00841080  RH  030%=      5-min Rain = 0
KSVS 111655Z 35019G25KT 09/M08 A3029 RMK A01 T00851078  RH  031%=      5-min Rain = 0
KSVS 111700Z 35020G26KT 09/M08 A3029 RMK A01 T00871080  RH  030%=      5-min Rain = 0
KSVS 111705Z 35021G28KT 09/M08 A3028 RMK A01 T00941082  RH  028%=      5-min Rain = 0
KSVS 111710Z 36019G25KT 09/M08 A3028 RMK A01 T00931083  RH  028%=      5-min Rain = 0
KSVS 111715Z 36018G23KT 10/M08 A3028 RMK A01 T00971082  RH  027%=      5-min Rain = 0
KSVS 111720Z 01020G29KT 11/M08 A3028 RMK A01 T01081081  RH  026%=      5-min Rain = 0
KSVS 111725Z 00019G29KT 11/M08 A3028 RMK A01 T01081081  RH  026%=      5-min Rain = 0
KSVS 111730Z 35021G27KT 10/M08 A3028 RMK A01 T01031079  RH  027%=      5-min Rain = 0
KSVS 111735Z 00021G27KT 10/M08 A3028 RMK A01 T00981078  RH  028%=      5-min Rain = 0
KSVS 111740Z 36020G26KT 09/M08 A3028 RMK A01 T00911078  RH  029%=      5-min Rain = 0
KSVS 111745Z 36018G24KT 09/M08 A3028 RMK A01 T00881077  RH  030%=      5-min Rain = 0
KSVS 111750Z 01018G25KT 09/M08 A3028 RMK A01 T00901076  RH  030%=      5-min Rain = 0
KSVS 111755Z 00018G24KT 09/M08 A3028 RMK A01 T00901079  RH  029%=      5-min Rain = 0
KSVS 111800Z 36018G24KT 09/M08 A3028 RMK A01 T00921079  RH  029%=      5-min Rain = 0
KSVS 111805Z 35021G26KT 09/M08 A3028 RMK A01 T00911082  RH  028%=      5-min Rain = 0
KSVS 111810Z 00020G26KT 09/M08 A3028 RMK A01 T00921084  RH  028%=      5-min Rain = 0
KSVS 111815Z 00018G28KT 10/M08 A3028 RMK A01 T00971083  RH  027%=      5-min Rain = 0
KSVS 111820Z 35020G29KT 10/M09 A3028 RMK A01 T00951088  RH  027%=      5-min Rain = 0
KSVS 111825Z 35020G25KT 10/M09 A3028 RMK A01 T00961089  RH  026%=      5-min Rain = 0
KSVS 111830Z 01021G28KT 10/M09 A3028 RMK A01 T00961092  RH  025%=      5-min Rain = 0
KSVS 111835Z 35017G24KT 10/M09 A3027 RMK A01 T00981090  RH  026%=      5-min Rain = 0
KSVS 111840Z 36019G27KT 11/M09 A3027 RMK A01 T01061091  RH  024%=      5-min Rain = 0
KSVS 111845Z 36018G27KT 10/M10 A3027 RMK A01 T01041096  RH  023%=      5-min Rain = 0
KSVS 111850Z 36020G26KT 10/M10 A3027 RMK A01 T01041097  RH  023%=      5-min Rain = 0
KSVS 111855Z 00019G24KT 11/M10 A3027 RMK A01 T01071096  RH  023%=      5-min Rain = 0
KSVS 111900Z 35021G28KT 11/M10 A3027 RMK A01 T01141099  RH  021%=      5-min Rain = 0
KSVS 111905Z 35020G27KT 11/M10 A3026 RMK A01 T01111098  RH  022%=      5-min Rain = 0
KSVS 111910Z 35019G27KT 11/M10 A3026 RMK A01 T01101099  RH  022%=      5-min Rain = 0
KSVS 111915Z 35019G25KT 11/M10 A3026 RMK A01 T01121099  RH  022%=      5-min Rain = 0
KSVS 111920Z 35018G24KT 12/M10 A3026 RMK A01 T01171099  RH  021%=      5-min Rain = 0
KSVS 111925Z 00019G26KT 12/M10 A3026 RMK A01 T01181103  RH  020%=      5-min Rain = 0
KSVS 111930Z 35020G25KT 11/M10 A3026 RMK A01 T01121103  RH  021%=      5-min Rain = 0
KSVS 111935Z 36018G24KT 11/M10 A3026 RMK A01 T01131101  RH  021%=      5-min Rain = 0
KSVS 111940Z 36016G26KT 12/M10 A3025 RMK A01 T01201099  RH  021%=      5-min Rain = 0
KSVS 111945Z 01016G26KT 13/M10 A3025 RMK A01 T01301101  RH  019%=      5-min Rain = 0
KSVS 111950Z 35019G29KT 13/M11 A3025 RMK A01 T01271110  RH  018%=      5-min Rain = 0
KSVS 111955Z 35020G27KT 13/M12 A3025 RMK A01 T01291116  RH  017%=      5-min Rain = 0
KSVS 112000Z 35018G23KT 13/M11 A3025 RMK A01 T01261112  RH  018%=      5-min Rain = 0
KSVS 112005Z 35019G26KT 13/M12 A3026 RMK A01 T01291118  RH  017%=      5-min Rain = 0
KSVS 112010Z 35021G27KT 12/M13 A3026 RMK A01 T01221127  RH  016%=      5-min Rain = 0
KSVS 112015Z 34019G24KT 12/M12 A3026 RMK A01 T01181123  RH  017%=      5-min Rain = 0
KSVS 112020Z 35018G25KT 13/M12 A3026 RMK A01 T01251121  RH  017%=      5-min Rain = 0
KSVS 112025Z 34017G24KT 13/M12 A3026 RMK A01 T01261124  RH  016%=      5-min Rain = 0
KSVS 112030Z 35016G23KT 12/M13 A3026 RMK A01 T01241125  RH  016%=      5-min Rain = 0
KSVS 112035Z 00018G24KT 13/M13 A3025 RMK A01 T01271125  RH  016%=      5-min Rain = 0
KSVS 112040Z 00017G22KT 13/M12 A3025 RMK A01 T01281123  RH  016%=      5-min Rain = 0
KSVS 112045Z 36015G23KT 13/M13 A3025 RMK A01 T01291125  RH  016%=      5-min Rain = 0
KSVS 112050Z 01018G26KT 14/M12 A3025 RMK A01 T01361124  RH  015%=      5-min Rain = 0
KSVS 112055Z 34015G22KT 13/M13 A3025 RMK A01 T01301129  RH  015%=      5-min Rain = 0
KSVS 112100Z 35014G21KT 13/M13 A3025 RMK A01 T01281131  RH  015%=      5-min Rain = 0
KSVS 112105Z 35016G22KT 14/M13 A3025 RMK A01 T01351134  RH  014%=      5-min Rain = 0
KSVS 112110Z 36017G22KT 13/M14 A3025 RMK A01 T01291137  RH  014%=      5-min Rain = 0
KSVS 112115Z 35014G19KT 14/M13 A3025 RMK A01 T01351133  RH  014%=      5-min Rain = 0
KSVS 112120Z 36015KT 13/M14 A3024 RMK A01 T01331137  RH  014%=      5-min Rain = 0
KSVS 112125Z 36017G23KT 13/M15 A3024 RMK A01 T01311147  RH  013%=      5-min Rain = 0
KSVS 112130Z 00016G22KT 13/M15 A3024 RMK A01 T01321151  RH  012%=      5-min Rain = 0
KSVS 112135Z 36015G22KT 13/M15 A3024 RMK A01 T01301152  RH  012%=      5-min Rain = 0
KSVS 112140Z 00016G21KT 13/M16 A3024 RMK A01 T01301155  RH  012%=      5-min Rain = 0
KSVS 112145Z 00014G19KT 13/M16 A3024 RMK A01 T01271156  RH  012%=      5-min Rain = 0
KSVS 112150Z 35016G21KT 13/M16 A3024 RMK A01 T01291161  RH  012%=      5-min Rain = 0
KSVS 112155Z 36014G21KT 12/M18 A3024 RMK A01 T01221175  RH  011%=      5-min Rain = 0
KSVS 112200Z 00016KT 12/M17 A3024 RMK A01 T01221172  RH  011%=      5-min Rain = 0
KSVS 112205Z 36014G21KT 12/M17 A3024 RMK A01 T01191169  RH  012%=      5-min Rain = 0
KSVS 112210Z 01011G16KT 12/M17 A3024 RMK A01 T01221166  RH  012%=      5-min Rain = 0
KSVS 112215Z 01013G18KT 13/M17 A3024 RMK A01 T01261167  RH  011%=      5-min Rain = 0
KSVS 112220Z 36012G17KT 13/M17 A3024 RMK A01 T01261174  RH  011%=      5-min Rain = 0
KSVS 112225Z 00012G17KT 13/M17 A3024 RMK A01 T01271174  RH  011%=      5-min Rain = 0
KSVS 112230Z 02013G19KT 13/M17 A3024 RMK A01 T01321173  RH  010%=      5-min Rain = 0
KSVS 112235Z 02014G19KT 13/M17 A3024 RMK A01 T01291173  RH  010%=      5-min Rain = 0
KSVS 112240Z 01012G20KT 13/M18 A3024 RMK A01 T01281176  RH  010%=      5-min Rain = 0
KSVS 112245Z 35015G20KT 13/M18 A3024 RMK A01 T01301175  RH  010%=      5-min Rain = 0
KSVS 112250Z 01015KT 13/M17 A3025 RMK A01 T01261174  RH  011%=      5-min Rain = 0
KSVS 112255Z 02015KT 13/M17 A3025 RMK A01 T01281171  RH  011%=      5-min Rain = 0
KSVS 112300Z 02014G19KT 12/M17 A3025 RMK A01 T01221170  RH  011%=      5-min Rain = 0
KSVS 112305Z 01012KT 12/M17 A3025 RMK A01 T01211168  RH  012%=      5-min Rain = 0
KSVS 112310Z 02013KT 12/M17 A3025 RMK A01 T01231168  RH  011%=      5-min Rain = 0
KSVS 112315Z 01014KT 12/M17 A3025 RMK A01 T01221171  RH  011%=      5-min Rain = 0
KSVS 112320Z 01011KT 12/M17 A3026 RMK A01 T01181171  RH  012%=      5-min Rain = 0
KSVS 112325Z 02011G16KT 11/M17 A3026 RMK A01 T01141167  RH  012%=      5-min Rain = 0
KSVS 112330Z 01011KT 11/M17 A3026 RMK A01 T01101165  RH  013%=      5-min Rain = 0
KSVS 112335Z 01011KT 11/M16 A3026 RMK A01 T01091164  RH  013%=      5-min Rain = 0
KSVS 112340Z 01012KT 11/M17 A3026 RMK A01 T01091168  RH  013%=      5-min Rain = 0
KSVS 112345Z 00010KT 11/M17 A3026 RMK A01 T01061166  RH  013%=      5-min Rain = 0
KSVS 112350Z 01009KT 11/M16 A3027 RMK A01 T01051163  RH  013%=      5-min Rain = 0
KSVS 112355Z 01007KT 11/M16 A3027 RMK A01 T01051161  RH  014%=      5-min Rain = 0
KSVS 120000Z 00006KT 10/M16 A3027 RMK A01 T01011161  RH  014%=      5-min Rain = 0
KSVS 120005Z 00007KT 10/M16 A3027 RMK A01 T01041161  RH  014%=      5-min Rain = 0
KSVS 120010Z 00007KT 10/M16 A3027 RMK A01 T01011164  RH  014%=      5-min Rain = 0
KSVS 120015Z 01007KT 10/M16 A3028 RMK A01 T00951164  RH  014%=      5-min Rain = 0
KSVS 120020Z 01007KT 09/M17 A3028 RMK A01 T00891166  RH  015%=      5-min Rain = 0
KSVS 120025Z 01007KT 09/M17 A3028 RMK A01 T00861168  RH  015%=      5-min Rain = 0
KSVS 120030Z 01007KT 08/M17 A3028 RMK A01 T00821168  RH  015%=      5-min Rain = 0
KSVS 120035Z 02007KT 08/M17 A3028 RMK A01 T00781168  RH  015%=      5-min Rain = 0
KSVS 120040Z 02008KT 08/M17 A3029 RMK A01 T00771166  RH  016%=      5-min Rain = 0
KSVS 120045Z 01008KT 07/M16 A3029 RMK A01 T00731162  RH  017%=      5-min Rain = 0
KSVS 120050Z 02008KT 07/M16 A3029 RMK A01 T00731157  RH  017%=      5-min Rain = 0
KSVS 120055Z 02008KT 07/M16 A3029 RMK A01 T00711155  RH  018%=      5-min Rain = 0
KSVS 120100Z 01007KT 07/M15 A3029 RMK A01 T00661154  RH  019%=      5-min Rain = 0
KSVS 120105Z 01008KT 06/M15 A3029 RMK A01 T00601153  RH  020%=      5-min Rain = 0
KSVS 120110Z 01007KT 05/M15 A3029 RMK A01 T00531152  RH  021%=      5-min Rain = 0
KSVS 120115Z 01008KT 05/M15 A3029 RMK A01 T00471152  RH  022%=      5-min Rain = 0
KSVS 120120Z 01007KT 04/M15 A303 RMK A01 T00431150  RH  023%=      5-min Rain = 0
KSVS 120125Z 02006KT 04/M15 A303 RMK A01 T00401150  RH  023%=      5-min Rain = 0
KSVS 120130Z 01004KT 04/M15 A303 RMK A01 T00381150  RH  024%=      5-min Rain = 0
KSVS 120135Z 01005KT 04/M15 A303 RMK A01 T00351150  RH  024%=      5-min Rain = 0
KSVS 120140Z 01005KT 03/M15 A3031 RMK A01 T00311149  RH  025%=      5-min Rain = 0
KSVS 120145Z 01005KT 03/M15 A3031 RMK A01 T00311152  RH  024%=      5-min Rain = 0
KSVS 120150Z 01007KT 03/M15 A3031 RMK A01 T00301149  RH  025%=      5-min Rain = 0
KSVS 120155Z 01006KT 02/M15 A3031 RMK A01 T00241145  RH  027%=      5-min Rain = 0
KSVS 120200Z 02005KT 03/M14 A3032 RMK A01 T00271140  RH  028%=      5-min Rain = 0
KSVS 120205Z 02006KT 03/M14 A3032 RMK A01 T00331139  RH  027%=      5-min Rain = 0
KSVS 120210Z 02006KT 03/M14 A3032 RMK A01 T00291140  RH  027%=      5-min Rain = 0
KSVS 120215Z 02005KT 02/M14 A3032 RMK A01 T00231141  RH  029%=      5-min Rain = 0
KSVS 120220Z 02005KT 02/M14 A3032 RMK A01 T00241136  RH  029%=      5-min Rain = 0
KSVS 120225Z 02005KT 02/M14 A3033 RMK A01 T00241135  RH  029%=      5-min Rain = 0
KSVS 120230Z 02004KT 03/M13 A3033 RMK A01 T00271130  RH  030%=      5-min Rain = 0
KSVS 120235Z 02005G10KT 03/M13 A3034 RMK A01 T00331126  RH  030%=      5-min Rain = 0
KSVS 120240Z 02006KT 03/M12 A3034 RMK A01 T00331117  RH  032%=      5-min Rain = 0
KSVS 120245Z 02006KT 04/M10 A3034 RMK A01 T00381100  RH  036%=      5-min Rain = 0
KSVS 120250Z 02006KT 04/M10 A3034 RMK A01 T00421095  RH  036%=      5-min Rain = 0
KSVS 120255Z 01005KT 04/M10 A3034 RMK A01 T00381097  RH  037%=      5-min Rain = 0
KSVS 120300Z 02005KT 03/M10 A3035 RMK A01 T00301099  RH  038%=      5-min Rain = 0
KSVS 120305Z 03006KT 03/M10 A3035 RMK A01 T00311097  RH  038%=      5-min Rain = 0
KSVS 120310Z 03007KT 03/M10 A3035 RMK A01 T00331095  RH  038%=      5-min Rain = 0
KSVS 120315Z 04007KT 03/M09 A3035 RMK A01 T00331092  RH  039%=      5-min Rain = 0
KSVS 120320Z 03008KT 03/M09 A3035 RMK A01 T00331088  RH  041%=      5-min Rain = 0
KSVS 120325Z 04008KT 04/M08 A3035 RMK A01 T00361084  RH  041%=      5-min Rain = 0
KSVS 120330Z 04008KT 04/M08 A3035 RMK A01 T00381082  RH  041%=      5-min Rain = 0
KSVS 120335Z 04008KT 04/M08 A3035 RMK A01 T00381082  RH  041%=      5-min Rain = 0
KSVS 120340Z 04008KT 04/M08 A3035 RMK A01 T00381080  RH  042%=      5-min Rain = 0
KSVS 120345Z 04008KT 04/M08 A3035 RMK A01 T00391079  RH  042%=      5-min Rain = 0
KSVS 120350Z 04007KT 04/M08 A3035 RMK A01 T00371079  RH  042%=      5-min Rain = 0
KSVS 120355Z 04007KT 03/M08 A3035 RMK A01 T00341080  RH  043%=      5-min Rain = 0
KSVS 120400Z 03007KT 03/M08 A3035 RMK A01 T00311080  RH  044%=      5-min Rain = 0
KSVS 120405Z 04006KT 03/M08 A3036 RMK A01 T00301080  RH  044%=      5-min Rain = 0
KSVS 120410Z 03007KT 03/M08 A3036 RMK A01 T00311078  RH  044%=      5-min Rain = 0
KSVS 120415Z 03006KT 03/M08 A3036 RMK A01 T00331078  RH  044%=      5-min Rain = 0
KSVS 120420Z 04005KT 03/M08 A3036 RMK A01 T00311078  RH  044%=      5-min Rain = 0
KSVS 120425Z 04006KT 03/M08 A3036 RMK A01 T00321078  RH  044%=      5-min Rain = 0
KSVS 120430Z 04006KT 03/M08 A3036 RMK A01 T00271079  RH  046%=      5-min Rain = 0
KSVS 120435Z 04007KT 02/M08 A3036 RMK A01 T00241078  RH  047%=      5-min Rain = 0
KSVS 120440Z 03008KT 02/M08 A3036 RMK A01 T00241076  RH  048%=      5-min Rain = 0
KSVS 120445Z 03008KT 02/M08 A3036 RMK A01 T00231075  RH  048%=      5-min Rain = 0
KSVS 120450Z 03009KT 02/M07 A3036 RMK A01 T00241073  RH  049%=      5-min Rain = 0
KSVS 120455Z 03009KT 03/M07 A3036 RMK A01 T00251071  RH  049%=      5-min Rain = 0

Page generated in 0.009 seconds.